sensor_id;sensor_type;location;lat;lon;timestamp;pressure;altitude;pressure_sealevel;temperature;humidity
38197;BME280;26543;51.976;4.616;2023-05-10T00:02:12;52983.41;;;-140.72;100.00
38197;BME280;26543;51.976;4.616;2023-05-10T00:04:37;52967.16;;;-140.72;100.00
38197;BME280;26543;51.976;4.616;2023-05-10T00:07:02;52979.34;;;-140.72;100.00
38197;BME280;26543;51.976;4.616;2023-05-10T00:09:28;52944.84;;;-140.72;100.00
38197;BME280;26543;51.976;4.616;2023-05-10T00:11:53;52971.22;;;-140.72;100.00
38197;BME280;26543;51.976;4.616;2023-05-10T00:14:18;52979.34;;;-140.72;100.00
38197;BME280;26543;51.976;4.616;2023-05-10T00:16:44;52973.25;;;-140.72;100.00
38197;BME280;26543;51.976;4.616;2023-05-10T00:19:09;52969.19;;;-140.72;100.00
38197;BME280;26543;51.976;4.616;2023-05-10T00:21:34;52991.53;;;-140.72;100.00
38197;BME280;26543;51.976;4.616;2023-05-10T00:23:59;52975.28;;;-140.72;100.00
38197;BME280;26543;51.976;4.616;2023-05-10T00:26:25;52967.16;;;-140.72;100.00
38197;BME280;26543;51.976;4.616;2023-05-10T00:28:50;52950.94;;;-140.72;100.00
38197;BME280;26543;51.976;4.616;2023-05-10T00:31:15;52983.41;;;-140.72;100.00
38197;BME280;26543;51.976;4.616;2023-05-10T00:33:40;52985.44;;;-140.72;100.00
38197;BME280;26543;51.976;4.616;2023-05-10T00:36:06;52993.56;;;-140.72;100.00
38197;BME280;26543;51.976;4.616;2023-05-10T00:38:32;52944.84;;;-140.72;100.00
38197;BME280;26543;51.976;4.616;2023-05-10T00:40:58;52993.56;;;-140.72;100.00
38197;BME280;26543;51.976;4.616;2023-05-10T00:43:23;52948.91;;;-140.72;100.00
38197;BME280;26543;51.976;4.616;2023-05-10T00:45:48;52979.34;;;-140.72;100.00
38197;BME280;26543;51.976;4.616;2023-05-10T00:48:13;52983.41;;;-140.72;100.00
38197;BME280;26543;51.976;4.616;2023-05-10T00:50:38;52959.06;;;-140.72;100.00
38197;BME280;26543;51.976;4.616;2023-05-10T00:53:05;52969.19;;;-140.72;100.00
38197;BME280;26543;51.976;4.616;2023-05-10T00:55:30;52924.56;;;-140.72;100.00
38197;BME280;26543;51.976;4.616;2023-05-10T00:57:56;53007.75;;;-140.72;100.00
38197;BME280;26543;51.976;4.616;2023-05-10T01:00:21;52959.06;;;-140.72;100.00
38197;BME280;26543;51.976;4.616;2023-05-10T01:02:46;52946.88;;;-140.72;100.00
38197;BME280;26543;51.976;4.616;2023-05-10T01:05:12;52963.13;;;-140.72;100.00
38197;BME280;26543;51.976;4.616;2023-05-10T01:07:38;52975.28;;;-140.72;100.00
38197;BME280;26543;51.976;4.616;2023-05-10T01:10:03;52952.97;;;-140.72;100.00
38197;BME280;26543;51.976;4.616;2023-05-10T01:12:28;52965.16;;;-140.72;100.00
38197;BME280;26543;51.976;4.616;2023-05-10T01:14:54;52965.16;;;-140.72;100.00
38197;BME280;26543;51.976;4.616;2023-05-10T01:17:20;52938.75;;;-140.72;100.00
38197;BME280;26543;51.976;4.616;2023-05-10T01:19:46;52942.81;;;-140.72;100.00
38197;BME280;26543;51.976;4.616;2023-05-10T01:24:45;52955.00;;;-140.72;100.00
38197;BME280;26543;51.976;4.616;2023-05-10T01:35:00;52973.25;;;-140.72;100.00
38197;BME280;26543;51.976;4.616;2023-05-10T01:37:32;52967.16;;;-140.72;100.00
38197;BME280;26543;51.976;4.616;2023-05-10T01:40:11;52920.50;;;-140.72;100.00
38197;BME280;26543;51.976;4.616;2023-05-10T01:42:43;52993.56;;;-140.72;100.00
38197;BME280;26543;51.976;4.616;2023-05-10T01:45:18;52934.69;;;-140.72;100.00
38197;BME280;26543;51.976;4.616;2023-05-10T01:47:50;52971.22;;;-140.72;100.00
38197;BME280;26543;51.976;4.616;2023-05-10T01:50:19;52999.66;;;-140.72;100.00
38197;BME280;26543;51.976;4.616;2023-05-10T01:52:50;52918.47;;;-140.72;100.00
38197;BME280;26543;51.976;4.616;2023-05-10T01:55:18;52946.88;;;-140.72;100.00
38197;BME280;26543;51.976;4.616;2023-05-10T01:57:45;52957.03;;;-140.72;100.00
38197;BME280;26543;51.976;4.616;2023-05-10T02:00:11;52942.81;;;-140.72;100.00
38197;BME280;26543;51.976;4.616;2023-05-10T02:02:37;52934.69;;;-140.72;100.00
38197;BME280;26543;51.976;4.616;2023-05-10T02:05:04;52963.13;;;-140.72;100.00
38197;BME280;26543;51.976;4.616;2023-05-10T02:07:30;52946.88;;;-140.72;100.00
38197;BME280;26543;51.976;4.616;2023-05-10T02:09:56;52934.69;;;-140.72;100.00
38197;BME280;26543;51.976;4.616;2023-05-10T02:12:22;52975.28;;;-140.72;100.00
38197;BME280;26543;51.976;4.616;2023-05-10T02:14:49;52942.81;;;-140.72;100.00
38197;BME280;26543;51.976;4.616;2023-05-10T02:17:16;52938.75;;;-140.72;100.00
38197;BME280;26543;51.976;4.616;2023-05-10T02:19:41;52967.16;;;-140.72;100.00
38197;BME280;26543;51.976;4.616;2023-05-10T02:22:08;52924.56;;;-140.72;100.00
38197;BME280;26543;51.976;4.616;2023-05-10T02:24:33;52926.59;;;-140.72;100.00
38197;BME280;26543;51.976;4.616;2023-05-10T02:27:00;52938.75;;;-140.72;100.00
38197;BME280;26543;51.976;4.616;2023-05-10T02:29:25;52948.91;;;-140.72;100.00
38197;BME280;26543;51.976;4.616;2023-05-10T02:31:52;52942.81;;;-140.72;100.00
38197;BME280;26543;51.976;4.616;2023-05-10T02:34:19;52971.22;;;-140.72;100.00
38197;BME280;26543;51.976;4.616;2023-05-10T02:36:45;52932.66;;;-140.72;100.00
38197;BME280;26543;51.976;4.616;2023-05-10T02:39:10;52926.59;;;-140.72;100.00
38197;BME280;26543;51.976;4.616;2023-05-10T02:41:38;52928.63;;;-140.72;100.00
38197;BME280;26543;51.976;4.616;2023-05-10T02:44:05;52934.69;;;-140.72;100.00
38197;BME280;26543;51.976;4.616;2023-05-10T02:46:31;52942.81;;;-140.72;100.00
38197;BME280;26543;51.976;4.616;2023-05-10T02:48:57;52916.44;;;-140.72;100.00
38197;BME280;26543;51.976;4.616;2023-05-10T02:51:24;52886.00;;;-140.72;100.00
38197;BME280;26543;51.976;4.616;2023-05-10T02:53:50;52975.28;;;-140.72;100.00
38197;BME280;26543;51.976;4.616;2023-05-10T02:56:25;52902.22;;;-140.72;100.00
38197;BME280;26543;51.976;4.616;2023-05-10T02:58:53;52971.22;;;-140.72;100.00
38197;BME280;26543;51.976;4.616;2023-05-10T03:01:19;52946.88;;;-140.72;100.00
38197;BME280;26543;51.976;4.616;2023-05-10T03:03:44;52946.88;;;-140.72;100.00
38197;BME280;26543;51.976;4.616;2023-05-10T03:06:09;52946.88;;;-140.72;100.00
38197;BME280;26543;51.976;4.616;2023-05-10T03:08:34;52942.81;;;-140.72;100.00
38197;BME280;26543;51.976;4.616;2023-05-10T03:11:14;52955.00;;;-140.72;100.00
38197;BME280;26543;51.976;4.616;2023-05-10T03:17:01;52926.59;;;-140.72;100.00
38197;BME280;26543;51.976;4.616;2023-05-10T03:19:30;52934.69;;;-140.72;100.00
38197;BME280;26543;51.976;4.616;2023-05-10T03:21:58;52950.94;;;-140.72;100.00
38197;BME280;26543;51.976;4.616;2023-05-10T03:24:24;52944.84;;;-140.72;100.00
38197;BME280;26543;51.976;4.616;2023-05-10T03:26:52;52946.88;;;-140.72;100.00
38197;BME280;26543;51.976;4.616;2023-05-10T03:29:19;52934.69;;;-140.72;100.00
38197;BME280;26543;51.976;4.616;2023-05-10T03:31:45;52950.94;;;-140.72;100.00
38197;BME280;26543;51.976;4.616;2023-05-10T03:34:10;52963.13;;;-140.72;100.00
38197;BME280;26543;51.976;4.616;2023-05-10T03:36:36;52930.66;;;-140.72;100.00
38197;BME280;26543;51.976;4.616;2023-05-10T03:39:01;52957.03;;;-140.72;100.00
38197;BME280;26543;51.976;4.616;2023-05-10T03:41:27;52920.50;;;-140.72;100.00
38197;BME280;26543;51.976;4.616;2023-05-10T03:43:52;52924.56;;;-140.72;100.00
38197;BME280;26543;51.976;4.616;2023-05-10T03:46:17;52959.06;;;-140.72;100.00
38197;BME280;26543;51.976;4.616;2023-05-10T03:48:42;52955.00;;;-140.72;100.00
38197;BME280;26543;51.976;4.616;2023-05-10T03:51:08;52942.81;;;-140.72;100.00
38197;BME280;26543;51.976;4.616;2023-05-10T03:53:33;52934.69;;;-140.72;100.00
38197;BME280;26543;51.976;4.616;2023-05-10T03:55:58;52948.91;;;-140.72;100.00
38197;BME280;26543;51.976;4.616;2023-05-10T03:58:23;52957.03;;;-140.72;100.00
38197;BME280;26543;51.976;4.616;2023-05-10T04:00:49;52971.22;;;-140.72;100.00
38197;BME280;26543;51.976;4.616;2023-05-10T04:03:14;52950.94;;;-140.72;100.00
38197;BME280;26543;51.976;4.616;2023-05-10T04:05:39;52922.53;;;-140.72;100.00
38197;BME280;26543;51.976;4.616;2023-05-10T04:08:05;52946.88;;;-140.72;100.00
38197;BME280;26543;51.976;4.616;2023-05-10T04:10:30;52906.28;;;-140.72;100.00
38197;BME280;26543;51.976;4.616;2023-05-10T04:12:55;52918.47;;;-140.72;100.00
38197;BME280;26543;51.976;4.616;2023-05-10T04:15:20;52928.63;;;-140.72;100.00
38197;BME280;26543;51.976;4.616;2023-05-10T04:17:46;52957.03;;;-140.72;100.00
38197;BME280;26543;51.976;4.616;2023-05-10T04:20:11;52955.00;;;-140.72;100.00
38197;BME280;26543;51.976;4.616;2023-05-10T04:22:36;52914.41;;;-140.72;100.00
38197;BME280;26543;51.976;4.616;2023-05-10T04:25:02;52928.63;;;-140.72;100.00
38197;BME280;26543;51.976;4.616;2023-05-10T04:27:27;52965.16;;;-140.72;100.00
38197;BME280;26543;51.976;4.616;2023-05-10T04:29:52;52977.31;;;-140.72;100.00
38197;BME280;26543;51.976;4.616;2023-05-10T04:32:17;52950.94;;;-140.72;100.00
38197;BME280;26543;51.976;4.616;2023-05-10T04:34:43;52944.84;;;-140.72;100.00
38197;BME280;26543;51.976;4.616;2023-05-10T04:37:09;52922.53;;;-140.72;100.00
38197;BME280;26543;51.976;4.616;2023-05-10T04:39:34;52940.78;;;-140.72;100.00
38197;BME280;26543;51.976;4.616;2023-05-10T04:42:00;52942.81;;;-140.72;100.00
38197;BME280;26543;51.976;4.616;2023-05-10T04:44:25;52940.78;;;-140.72;100.00
38197;BME280;26543;51.976;4.616;2023-05-10T04:46:51;52950.94;;;-140.72;100.00
38197;BME280;26543;51.976;4.616;2023-05-10T04:49:16;52928.63;;;-140.72;100.00
38197;BME280;26543;51.976;4.616;2023-05-10T04:51:41;52934.69;;;-140.72;100.00
38197;BME280;26543;51.976;4.616;2023-05-10T04:54:06;52963.13;;;-140.72;100.00
38197;BME280;26543;51.976;4.616;2023-05-10T04:56:32;52894.13;;;-140.72;100.00
38197;BME280;26543;51.976;4.616;2023-05-10T04:58:57;52971.22;;;-140.72;100.00
38197;BME280;26543;51.976;4.616;2023-05-10T05:01:22;52967.16;;;-140.72;100.00
38197;BME280;26543;51.976;4.616;2023-05-10T05:03:48;52926.59;;;-140.72;100.00
38197;BME280;26543;51.976;4.616;2023-05-10T05:06:13;52989.50;;;-140.72;100.00
38197;BME280;26543;51.976;4.616;2023-05-10T05:08:38;52946.88;;;-140.72;100.00
38197;BME280;26543;51.976;4.616;2023-05-10T05:11:03;52938.75;;;-140.72;100.00
38197;BME280;26543;51.976;4.616;2023-05-10T05:13:29;52950.94;;;-140.72;100.00
38197;BME280;26543;51.976;4.616;2023-05-10T05:15:54;52950.94;;;-140.72;100.00
38197;BME280;26543;51.976;4.616;2023-05-10T05:18:19;52952.97;;;-140.72;100.00
38197;BME280;26543;51.976;4.616;2023-05-10T05:20:44;52934.69;;;-140.72;100.00
38197;BME280;26543;51.976;4.616;2023-05-10T05:23:10;52944.84;;;-140.72;100.00
38197;BME280;26543;51.976;4.616;2023-05-10T05:25:35;52946.88;;;-140.72;100.00
38197;BME280;26543;51.976;4.616;2023-05-10T05:28:01;52981.38;;;-140.72;100.00
38197;BME280;26543;51.976;4.616;2023-05-10T05:30:26;52975.28;;;-140.72;100.00
38197;BME280;26543;51.976;4.616;2023-05-10T05:32:51;52934.69;;;-140.72;100.00
38197;BME280;26543;51.976;4.616;2023-05-10T05:35:17;52918.47;;;-140.72;100.00
38197;BME280;26543;51.976;4.616;2023-05-10T05:37:42;52936.72;;;-140.72;100.00
38197;BME280;26543;51.976;4.616;2023-05-10T05:40:07;52932.66;;;-140.72;100.00
38197;BME280;26543;51.976;4.616;2023-05-10T05:42:33;52914.41;;;-140.72;100.00
38197;BME280;26543;51.976;4.616;2023-05-10T05:44:58;52892.09;;;-140.72;100.00
38197;BME280;26543;51.976;4.616;2023-05-10T05:47:30;52955.00;;;-140.72;100.00
38197;BME280;26543;51.976;4.616;2023-05-10T05:49:56;52940.78;;;-140.72;100.00
38197;BME280;26543;51.976;4.616;2023-05-10T05:52:21;52924.56;;;-140.72;100.00
38197;BME280;26543;51.976;4.616;2023-05-10T05:54:46;52973.25;;;-140.72;100.00
38197;BME280;26543;51.976;4.616;2023-05-10T05:57:11;52952.97;;;-140.72;100.00
38197;BME280;26543;51.976;4.616;2023-05-10T05:59:37;52969.19;;;-140.72;100.00
38197;BME280;26543;51.976;4.616;2023-05-10T06:02:06;52961.09;;;-140.72;100.00
38197;BME280;26543;51.976;4.616;2023-05-10T06:04:32;52930.66;;;-140.72;100.00
38197;BME280;26543;51.976;4.616;2023-05-10T06:06:57;52975.28;;;-140.72;100.00
38197;BME280;26543;51.976;4.616;2023-05-10T06:09:22;52932.66;;;-140.72;100.00
38197;BME280;26543;51.976;4.616;2023-05-10T06:11:49;52910.34;;;-140.72;100.00
38197;BME280;26543;51.976;4.616;2023-05-10T06:14:14;52910.34;;;-140.72;100.00
38197;BME280;26543;51.976;4.616;2023-05-10T06:16:40;52906.28;;;-140.72;100.00
38197;BME280;26543;51.976;4.616;2023-05-10T06:19:05;52916.44;;;-140.72;100.00
38197;BME280;26543;51.976;4.616;2023-05-10T06:21:32;52936.72;;;-140.72;100.00
38197;BME280;26543;51.976;4.616;2023-05-10T06:23:57;52912.38;;;-140.72;100.00
38197;BME280;26543;51.976;4.616;2023-05-10T06:26:23;52914.41;;;-140.72;100.00
38197;BME280;26543;51.976;4.616;2023-05-10T06:28:48;52894.13;;;-140.72;100.00
38197;BME280;26543;51.976;4.616;2023-05-10T06:31:13;52934.69;;;-140.72;100.00
38197;BME280;26543;51.976;4.616;2023-05-10T06:33:39;52918.47;;;-140.72;100.00
38197;BME280;26543;51.976;4.616;2023-05-10T06:36:04;52926.59;;;-140.72;100.00
38197;BME280;26543;51.976;4.616;2023-05-10T06:38:29;52942.81;;;-140.72;100.00
38197;BME280;26543;51.976;4.616;2023-05-10T06:40:55;52898.16;;;-140.72;100.00
38197;BME280;26543;51.976;4.616;2023-05-10T06:43:20;52906.28;;;-140.72;100.00
38197;BME280;26543;51.976;4.616;2023-05-10T06:45:45;52892.09;;;-140.72;100.00
38197;BME280;26543;51.976;4.616;2023-05-10T06:48:11;52914.41;;;-140.72;100.00
38197;BME280;26543;51.976;4.616;2023-05-10T06:50:36;52883.97;;;-140.72;100.00
38197;BME280;26543;51.976;4.616;2023-05-10T06:53:01;52871.78;;;-140.72;100.00
38197;BME280;26543;51.976;4.616;2023-05-10T06:55:27;52910.34;;;-140.72;100.00
38197;BME280;26543;51.976;4.616;2023-05-10T06:57:52;52861.66;;;-140.72;100.00
38197;BME280;26543;51.976;4.616;2023-05-10T07:00:18;52869.75;;;-140.72;100.00
38197;BME280;26543;51.976;4.616;2023-05-10T07:02:43;52894.13;;;-140.72;100.00
38197;BME280;26543;51.976;4.616;2023-05-10T07:05:09;52841.34;;;-140.72;100.00
38197;BME280;26543;51.976;4.616;2023-05-10T07:07:34;52871.78;;;-140.72;100.00
38197;BME280;26543;51.976;4.616;2023-05-10T07:10:00;52910.34;;;-140.72;100.00
38197;BME280;26543;51.976;4.616;2023-05-10T07:12:25;52900.19;;;-140.72;100.00
38197;BME280;26543;51.976;4.616;2023-05-10T07:14:50;52934.69;;;-140.72;100.00
38197;BME280;26543;51.976;4.616;2023-05-10T07:17:15;52906.28;;;-140.72;100.00
38197;BME280;26543;51.976;4.616;2023-05-10T07:19:41;52908.31;;;-140.72;100.00
38197;BME280;26543;51.976;4.616;2023-05-10T07:22:06;52910.34;;;-140.72;100.00
38197;BME280;26543;51.976;4.616;2023-05-10T07:24:32;52892.09;;;-140.72;100.00
38197;BME280;26543;51.976;4.616;2023-05-10T07:26:57;52924.56;;;-140.72;100.00
38197;BME280;26543;51.976;4.616;2023-05-10T07:29:24;52924.56;;;-140.72;100.00
38197;BME280;26543;51.976;4.616;2023-05-10T07:31:49;52918.47;;;-140.72;100.00
38197;BME280;26543;51.976;4.616;2023-05-10T07:34:15;52914.41;;;-140.72;100.00
38197;BME280;26543;51.976;4.616;2023-05-10T07:36:40;52900.19;;;-140.72;100.00
38197;BME280;26543;51.976;4.616;2023-05-10T07:39:05;52926.59;;;-140.72;100.00
38197;BME280;26543;51.976;4.616;2023-05-10T07:41:31;52904.25;;;-140.72;100.00
38197;BME280;26543;51.976;4.616;2023-05-10T07:43:58;52877.88;;;-140.72;100.00
38197;BME280;26543;51.976;4.616;2023-05-10T07:46:23;52861.66;;;-140.72;100.00
38197;BME280;26543;51.976;4.616;2023-05-10T07:48:49;52918.47;;;-140.72;100.00
38197;BME280;26543;51.976;4.616;2023-05-10T07:51:14;52890.06;;;-140.72;100.00
38197;BME280;26543;51.976;4.616;2023-05-10T07:53:39;52881.94;;;-140.72;100.00
38197;BME280;26543;51.976;4.616;2023-05-10T07:59:09;52869.75;;;-140.72;100.00
38197;BME280;26543;51.976;4.616;2023-05-10T08:01:35;52894.13;;;-140.72;100.00
38197;BME280;26543;51.976;4.616;2023-05-10T08:04:00;52857.59;;;-140.72;100.00
38197;BME280;26543;51.976;4.616;2023-05-10T08:06:26;52910.34;;;-140.72;100.00
38197;BME280;26543;51.976;4.616;2023-05-10T08:08:53;52924.56;;;-140.72;100.00
38197;BME280;26543;51.976;4.616;2023-05-10T08:11:21;52871.78;;;-140.72;100.00
38197;BME280;26543;51.976;4.616;2023-05-10T08:13:48;52922.53;;;-140.72;100.00
38197;BME280;26543;51.976;4.616;2023-05-10T08:16:13;52865.69;;;-140.72;100.00
38197;BME280;26543;51.976;4.616;2023-05-10T08:18:39;52869.75;;;-140.72;100.00
38197;BME280;26543;51.976;4.616;2023-05-10T08:21:04;52888.03;;;-140.72;100.00
38197;BME280;26543;51.976;4.616;2023-05-10T08:23:29;52888.03;;;-140.72;100.00
38197;BME280;26543;51.976;4.616;2023-05-10T08:25:55;52881.94;;;-140.72;100.00
38197;BME280;26543;51.976;4.616;2023-05-10T08:28:21;52910.34;;;-140.72;100.00
38197;BME280;26543;51.976;4.616;2023-05-10T08:30:46;52918.47;;;-140.72;100.00
38197;BME280;26543;51.976;4.616;2023-05-10T08:33:11;52892.09;;;-140.72;100.00
38197;BME280;26543;51.976;4.616;2023-05-10T08:35:37;52926.59;;;-140.72;100.00
38197;BME280;26543;51.976;4.616;2023-05-10T08:38:02;52863.66;;;-140.72;100.00
38197;BME280;26543;51.976;4.616;2023-05-10T08:40:27;52908.31;;;-140.72;100.00
38197;BME280;26543;51.976;4.616;2023-05-10T08:42:58;52861.66;;;-140.72;100.00
38197;BME280;26543;51.976;4.616;2023-05-10T08:45:25;52916.44;;;-140.72;100.00
38197;BME280;26543;51.976;4.616;2023-05-10T08:47:53;52875.84;;;-140.72;100.00
38197;BME280;26543;51.976;4.616;2023-05-10T08:50:20;52825.13;;;-140.72;100.00
38197;BME280;26543;51.976;4.616;2023-05-10T08:52:46;52865.69;;;-140.72;100.00
38197;BME280;26543;51.976;4.616;2023-05-10T08:55:13;52861.66;;;-140.72;100.00
38197;BME280;26543;51.976;4.616;2023-05-10T08:57:38;52845.41;;;-140.72;100.00
38197;BME280;26543;51.976;4.616;2023-05-10T09:00:04;52837.28;;;-140.72;100.00
38197;BME280;26543;51.976;4.616;2023-05-10T09:02:30;52859.63;;;-140.72;100.00
38197;BME280;26543;51.976;4.616;2023-05-10T09:04:56;52817.00;;;-140.72;100.00
38197;BME280;26543;51.976;4.616;2023-05-10T09:07:21;52825.13;;;-140.72;100.00
38197;BME280;26543;51.976;4.616;2023-05-10T09:09:47;52754.09;;;-140.72;100.00
38197;BME280;26543;51.976;4.616;2023-05-10T09:12:12;52768.28;;;-140.72;100.00
38197;BME280;26543;51.976;4.616;2023-05-10T09:14:40;52776.41;;;-140.72;100.00
38197;BME280;26543;51.976;4.616;2023-05-10T09:17:05;52784.53;;;-140.72;100.00
38197;BME280;26543;51.976;4.616;2023-05-10T09:19:31;52758.16;;;-140.72;100.00
38197;BME280;26543;51.976;4.616;2023-05-10T09:21:56;52792.66;;;-140.72;100.00
38197;BME280;26543;51.976;4.616;2023-05-10T09:24:25;52782.50;;;-140.72;100.00
38197;BME280;26543;51.976;4.616;2023-05-10T09:26:51;52784.53;;;-140.72;100.00
38197;BME280;26543;51.976;4.616;2023-05-10T09:29:16;52817.00;;;-140.72;100.00
38197;BME280;26543;51.976;4.616;2023-05-10T09:31:59;52823.09;;;-140.72;100.00
38197;BME280;26543;51.976;4.616;2023-05-10T09:34:28;52837.28;;;-140.72;100.00
38197;BME280;26543;51.976;4.616;2023-05-10T09:36:56;52827.16;;;-140.72;100.00
38197;BME280;26543;51.976;4.616;2023-05-10T09:39:34;52817.00;;;-140.72;100.00
38197;BME280;26543;51.976;4.616;2023-05-10T09:42:01;52851.50;;;-140.72;100.00
38197;BME280;26543;51.976;4.616;2023-05-10T09:44:28;52817.00;;;-140.72;100.00
38197;BME280;26543;51.976;4.616;2023-05-10T09:46:54;52853.53;;;-140.72;100.00
38197;BME280;26543;51.976;4.616;2023-05-10T09:49:20;52851.50;;;-140.72;100.00
38197;BME280;26543;51.976;4.616;2023-05-10T09:51:45;52865.69;;;-140.72;100.00
38197;BME280;26543;51.976;4.616;2023-05-10T09:54:12;52817.00;;;-140.72;100.00
38197;BME280;26543;51.976;4.616;2023-05-10T09:56:38;52881.94;;;-140.72;100.00
38197;BME280;26543;51.976;4.616;2023-05-10T09:59:05;52823.09;;;-140.72;100.00
38197;BME280;26543;51.976;4.616;2023-05-10T10:01:31;52810.91;;;-140.72;100.00
38197;BME280;26543;51.976;4.616;2023-05-10T10:03:56;52853.53;;;-140.72;100.00
38197;BME280;26543;51.976;4.616;2023-05-10T10:06:23;52857.59;;;-140.72;100.00
38197;BME280;26543;51.976;4.616;2023-05-10T10:08:48;52851.50;;;-140.72;100.00
38197;BME280;26543;51.976;4.616;2023-05-10T10:11:13;52861.66;;;-140.72;100.00
38197;BME280;26543;51.976;4.616;2023-05-10T10:13:39;52849.47;;;-140.72;100.00
38197;BME280;26543;51.976;4.616;2023-05-10T10:16:04;52825.13;;;-140.72;100.00
38197;BME280;26543;51.976;4.616;2023-05-10T10:18:30;52825.13;;;-140.72;100.00
38197;BME280;26543;51.976;4.616;2023-05-10T10:20:55;52823.09;;;-140.72;100.00
38197;BME280;26543;51.976;4.616;2023-05-10T10:23:21;52819.03;;;-140.72;100.00
38197;BME280;26543;51.976;4.616;2023-05-10T10:25:46;52819.03;;;-140.72;100.00
38197;BME280;26543;51.976;4.616;2023-05-10T10:30:57;52857.59;;;-140.72;100.00
38197;BME280;26543;51.976;4.616;2023-05-10T10:36:12;52792.66;;;-140.72;100.00
38197;BME280;26543;51.976;4.616;2023-05-10T10:41:29;52821.06;;;-140.72;100.00
38197;BME280;26543;51.976;4.616;2023-05-10T10:46:58;52810.91;;;-140.72;100.00
38197;BME280;26543;51.976;4.616;2023-05-10T10:49:23;52794.69;;;-140.72;100.00
38197;BME280;26543;51.976;4.616;2023-05-10T10:54:33;52780.47;;;-140.72;100.00
38197;BME280;26543;51.976;4.616;2023-05-10T10:57:12;52770.31;;;-140.72;100.00
38197;BME280;26543;51.976;4.616;2023-05-10T10:59:44;52739.88;;;-140.72;100.00
38197;BME280;26543;51.976;4.616;2023-05-10T11:02:10;52776.41;;;-140.72;100.00
38197;BME280;26543;51.976;4.616;2023-05-10T11:04:42;52750.03;;;-140.72;100.00
38197;BME280;26543;51.976;4.616;2023-05-10T11:07:17;52800.75;;;-140.72;100.00
38197;BME280;26543;51.976;4.616;2023-05-10T11:09:42;52800.75;;;-140.72;100.00
38197;BME280;26543;51.976;4.616;2023-05-10T11:12:08;52817.00;;;-140.72;100.00
38197;BME280;26543;51.976;4.616;2023-05-10T11:14:33;52784.53;;;-140.72;100.00
38197;BME280;26543;51.976;4.616;2023-05-10T11:16:59;52764.25;;;-140.72;100.00
38197;BME280;26543;51.976;4.616;2023-05-10T11:19:27;52774.38;;;-140.72;100.00
38197;BME280;26543;51.976;4.616;2023-05-10T11:24:29;52825.13;;;-140.72;100.00
38197;BME280;26543;51.976;4.616;2023-05-10T11:26:55;52796.72;;;-140.72;100.00
38197;BME280;26543;51.976;4.616;2023-05-10T11:29:21;52827.16;;;-140.72;100.00
38197;BME280;26543;51.976;4.616;2023-05-10T11:31:46;52823.09;;;-140.72;100.00
38197;BME280;26543;51.976;4.616;2023-05-10T11:34:22;52845.41;;;-140.72;100.00
38197;BME280;26543;51.976;4.616;2023-05-10T11:36:50;52800.75;;;-140.72;100.00
38197;BME280;26543;51.976;4.616;2023-05-10T11:39:15;52778.44;;;-140.72;100.00
38197;BME280;26543;51.976;4.616;2023-05-10T11:41:41;52796.72;;;-140.72;100.00
38197;BME280;26543;51.976;4.616;2023-05-10T11:44:06;52796.72;;;-140.72;100.00
38197;BME280;26543;51.976;4.616;2023-05-10T11:46:34;52806.84;;;-140.72;100.00
38197;BME280;26543;51.976;4.616;2023-05-10T11:49:00;52798.72;;;-140.72;100.00
38197;BME280;26543;51.976;4.616;2023-05-10T11:51:34;52768.28;;;-140.72;100.00
38197;BME280;26543;51.976;4.616;2023-05-10T11:54:09;52788.59;;;-140.72;100.00
38197;BME280;26543;51.976;4.616;2023-05-10T11:56:34;52790.63;;;-140.72;100.00
38197;BME280;26543;51.976;4.616;2023-05-10T11:58:59;52790.63;;;-140.72;100.00
38197;BME280;26543;51.976;4.616;2023-05-10T12:01:26;52788.59;;;-140.72;100.00
38197;BME280;26543;51.976;4.616;2023-05-10T12:03:53;52808.88;;;-140.72;100.00
38197;BME280;26543;51.976;4.616;2023-05-10T12:06:19;52800.75;;;-140.72;100.00
38197;BME280;26543;51.976;4.616;2023-05-10T12:08:45;52798.72;;;-140.72;100.00
38197;BME280;26543;51.976;4.616;2023-05-10T12:11:11;52800.75;;;-140.72;100.00
38197;BME280;26543;51.976;4.616;2023-05-10T12:13:37;52853.53;;;-140.72;100.00
38197;BME280;26543;51.976;4.616;2023-05-10T12:16:12;52849.47;;;-140.72;100.00
38197;BME280;26543;51.976;4.616;2023-05-10T12:18:38;52845.41;;;-140.72;100.00
38197;BME280;26543;51.976;4.616;2023-05-10T12:21:04;52821.06;;;-140.72;100.00
38197;BME280;26543;51.976;4.616;2023-05-10T12:23:30;52865.69;;;-140.72;100.00
38197;BME280;26543;51.976;4.616;2023-05-10T12:26:01;52784.53;;;-140.72;100.00
38197;BME280;26543;51.976;4.616;2023-05-10T12:28:29;52794.69;;;-140.72;100.00
38197;BME280;26543;51.976;4.616;2023-05-10T12:30:55;52817.00;;;-140.72;100.00
38197;BME280;26543;51.976;4.616;2023-05-10T12:33:22;52821.06;;;-140.72;100.00
38197;BME280;26543;51.976;4.616;2023-05-10T12:35:50;52857.59;;;-140.72;100.00
38197;BME280;26543;51.976;4.616;2023-05-10T12:38:26;52845.41;;;-140.72;100.00
38197;BME280;26543;51.976;4.616;2023-05-10T12:40:54;52825.13;;;-140.72;100.00
38197;BME280;26543;51.976;4.616;2023-05-10T12:43:19;52804.81;;;-140.72;100.00
38197;BME280;26543;51.976;4.616;2023-05-10T12:45:45;52812.94;;;-140.72;100.00
38197;BME280;26543;51.976;4.616;2023-05-10T12:48:12;52853.53;;;-140.72;100.00
38197;BME280;26543;51.976;4.616;2023-05-10T12:50:38;52829.19;;;-140.72;100.00
38197;BME280;26543;51.976;4.616;2023-05-10T12:53:03;52802.78;;;-140.72;100.00
38197;BME280;26543;51.976;4.616;2023-05-10T12:55:28;52780.47;;;-140.72;100.00
38197;BME280;26543;51.976;4.616;2023-05-10T12:57:53;52800.75;;;-140.72;100.00
38197;BME280;26543;51.976;4.616;2023-05-10T13:00:19;52817.00;;;-140.72;100.00